sensor_id;sensor_type;location;lat;lon;timestamp;temperature;humidity
75113;DHT22;63692;47.338;8.520;2023-04-29T19:31:14;17.40;99.40
75113;DHT22;63692;47.338;8.520;2023-04-29T19:33:39;17.30;99.70
75113;DHT22;63692;47.338;8.520;2023-04-29T19:43:27;17.10;99.80
75113;DHT22;63692;47.338;8.520;2023-04-29T19:45:53;17.10;99.20
75113;DHT22;63692;47.338;8.520;2023-04-29T19:48:18;17.00;98.90
75113;DHT22;63692;47.338;8.520;2023-04-29T19:50:44;17.00;99.00
75113;DHT22;63692;47.338;8.520;2023-04-29T19:53:10;16.80;99.00
75113;DHT22;63692;47.338;8.520;2023-04-29T19:55:36;16.80;99.00
75113;DHT22;63692;47.338;8.520;2023-04-29T19:58:03;16.70;98.70
75113;DHT22;63692;47.338;8.520;2023-04-29T20:00:29;16.70;98.80
75113;DHT22;63692;47.338;8.520;2023-04-29T20:02:55;16.50;99.00
75113;DHT22;63692;47.338;8.520;2023-04-29T20:05:21;16.40;98.90
75113;DHT22;63692;47.338;8.520;2023-04-29T20:07:47;16.40;99.00
75113;DHT22;63692;47.338;8.520;2023-04-29T20:10:13;16.30;98.90
75113;DHT22;63692;47.338;8.520;2023-04-29T20:12:38;16.20;99.00
75113;DHT22;63692;47.338;8.520;2023-04-29T20:15:05;16.10;98.90
75113;DHT22;63692;47.338;8.520;2023-04-29T20:17:31;16.10;98.90
75113;DHT22;63692;47.338;8.520;2023-04-29T20:19:57;16.10;99.00
75113;DHT22;63692;47.338;8.520;2023-04-29T20:22:22;16.10;99.20
75113;DHT22;63692;47.338;8.520;2023-04-29T20:24:48;16.00;99.40
75113;DHT22;63692;47.338;8.520;2023-04-29T20:27:13;16.00;99.40
75113;DHT22;63692;47.338;8.520;2023-04-29T20:29:39;16.00;99.60
75113;DHT22;63692;47.338;8.520;2023-04-29T20:32:04;16.00;99.40
75113;DHT22;63692;47.338;8.520;2023-04-29T20:34:30;16.00;99.30
75113;DHT22;63692;47.338;8.520;2023-04-29T20:36:57;15.90;99.30
75113;DHT22;63692;47.338;8.520;2023-04-29T20:39:23;15.80;99.70
75113;DHT22;63692;47.338;8.520;2023-04-29T20:41:49;15.80;99.90
75113;DHT22;63692;47.338;8.520;2023-04-29T20:44:15;15.80;99.80
75113;DHT22;63692;47.338;8.520;2023-04-29T20:46:41;15.80;99.90
75113;DHT22;63692;47.338;8.520;2023-04-29T20:49:07;15.70;99.90
75113;DHT22;63692;47.338;8.520;2023-04-29T20:51:32;15.80;99.90
75113;DHT22;63692;47.338;8.520;2023-04-29T20:53:58;15.80;99.90
75113;DHT22;63692;47.338;8.520;2023-04-29T20:56:24;15.70;99.90
75113;DHT22;63692;47.338;8.520;2023-04-29T20:58:50;15.70;99.90
75113;DHT22;63692;47.338;8.520;2023-04-29T21:01:16;15.70;99.90
75113;DHT22;63692;47.338;8.520;2023-04-29T21:03:43;15.70;99.90
75113;DHT22;63692;47.338;8.520;2023-04-29T21:06:09;15.70;99.90
75113;DHT22;63692;47.338;8.520;2023-04-29T21:08:34;15.60;99.90
75113;DHT22;63692;47.338;8.520;2023-04-29T21:11:00;15.60;99.90
75113;DHT22;63692;47.338;8.520;2023-04-29T21:13:26;15.60;99.90
75113;DHT22;63692;47.338;8.520;2023-04-29T21:15:52;15.60;99.90
75113;DHT22;63692;47.338;8.520;2023-04-29T21:18:18;15.50;99.90
75113;DHT22;63692;47.338;8.520;2023-04-29T21:20:43;15.50;99.90
75113;DHT22;63692;47.338;8.520;2023-04-29T21:23:09;15.50;99.90
75113;DHT22;63692;47.338;8.520;2023-04-29T21:25:35;15.50;99.90
75113;DHT22;63692;47.338;8.520;2023-04-29T21:28:01;15.50;99.90
75113;DHT22;63692;47.338;8.520;2023-04-29T21:30:26;15.50;99.90
75113;DHT22;63692;47.338;8.520;2023-04-29T21:32:52;15.40;99.90
75113;DHT22;63692;47.338;8.520;2023-04-29T21:35:18;15.40;99.90
